sensor_id;sensor_type;location;lat;lon;timestamp;P1;durP1;ratioP1;P2;durP2;ratioP2
4468;SDS011;2247;42.666;23.292;2024-03-02T00:02:47;25.07;;;15.03;;
4468;SDS011;2247;42.666;23.292;2024-03-02T00:05:17;25.80;;;14.33;;
4468;SDS011;2247;42.666;23.292;2024-03-02T00:07:45;22.53;;;14.27;;
4468;SDS011;2247;42.666;23.292;2024-03-02T00:10:19;24.43;;;13.80;;
4468;SDS011;2247;42.666;23.292;2024-03-02T00:12:50;28.87;;;15.30;;
4468;SDS011;2247;42.666;23.292;2024-03-02T00:15:25;28.60;;;14.83;;
4468;SDS011;2247;42.666;23.292;2024-03-02T00:18:07;25.53;;;14.90;;
4468;SDS011;2247;42.666;23.292;2024-03-02T00:20:37;25.23;;;13.73;;
4468;SDS011;2247;42.666;23.292;2024-03-02T00:23:05;27.20;;;14.80;;
4468;SDS011;2247;42.666;23.292;2024-03-02T00:25:39;29.10;;;15.07;;
4468;SDS011;2247;42.666;23.292;2024-03-02T00:28:12;26.87;;;14.63;;
4468;SDS011;2247;42.666;23.292;2024-03-02T00:30:55;26.27;;;14.93;;
4468;SDS011;2247;42.666;23.292;2024-03-02T00:33:30;26.90;;;14.80;;
4468;SDS011;2247;42.666;23.292;2024-03-02T00:35:58;22.63;;;13.40;;
4468;SDS011;2247;42.666;23.292;2024-03-02T00:38:26;26.80;;;14.90;;
4468;SDS011;2247;42.666;23.292;2024-03-02T00:40:54;28.27;;;15.10;;
4468;SDS011;2247;42.666;23.292;2024-03-02T00:43:33;20.17;;;12.90;;
4468;SDS011;2247;42.666;23.292;2024-03-02T00:46:13;23.83;;;14.43;;
4468;SDS011;2247;42.666;23.292;2024-03-02T00:48:47;23.43;;;13.70;;
4468;SDS011;2247;42.666;23.292;2024-03-02T00:51:18;31.17;;;15.57;;
4468;SDS011;2247;42.666;23.292;2024-03-02T00:53:44;28.30;;;14.87;;
4468;SDS011;2247;42.666;23.292;2024-03-02T00:56:11;30.90;;;16.17;;
4468;SDS011;2247;42.666;23.292;2024-03-02T00:58:39;30.27;;;15.80;;
4468;SDS011;2247;42.666;23.292;2024-03-02T01:01:06;23.17;;;14.47;;
4468;SDS011;2247;42.666;23.292;2024-03-02T01:03:33;26.13;;;15.10;;
4468;SDS011;2247;42.666;23.292;2024-03-02T01:06:02;26.63;;;15.90;;
4468;SDS011;2247;42.666;23.292;2024-03-02T01:08:30;24.30;;;15.37;;
4468;SDS011;2247;42.666;23.292;2024-03-02T01:10:57;34.30;;;15.80;;
4468;SDS011;2247;42.666;23.292;2024-03-02T01:13:24;30.50;;;15.67;;
4468;SDS011;2247;42.666;23.292;2024-03-02T01:15:52;28.37;;;15.70;;
4468;SDS011;2247;42.666;23.292;2024-03-02T01:18:19;27.70;;;15.37;;
4468;SDS011;2247;42.666;23.292;2024-03-02T01:20:47;24.07;;;15.20;;
4468;SDS011;2247;42.666;23.292;2024-03-02T01:23:18;29.60;;;16.83;;
4468;SDS011;2247;42.666;23.292;2024-03-02T01:25:45;27.80;;;15.60;;
4468;SDS011;2247;42.666;23.292;2024-03-02T01:28:13;30.00;;;16.17;;
4468;SDS011;2247;42.666;23.292;2024-03-02T01:30:40;29.47;;;15.80;;
4468;SDS011;2247;42.666;23.292;2024-03-02T01:33:07;31.17;;;16.80;;
4468;SDS011;2247;42.666;23.292;2024-03-02T01:35:34;31.20;;;16.50;;
4468;SDS011;2247;42.666;23.292;2024-03-02T01:38:02;33.30;;;17.13;;
4468;SDS011;2247;42.666;23.292;2024-03-02T01:40:33;28.30;;;15.93;;
4468;SDS011;2247;42.666;23.292;2024-03-02T01:43:00;28.30;;;15.80;;
4468;SDS011;2247;42.666;23.292;2024-03-02T01:45:27;26.83;;;15.83;;
4468;SDS011;2247;42.666;23.292;2024-03-02T01:47:57;25.83;;;14.87;;
4468;SDS011;2247;42.666;23.292;2024-03-02T01:50:25;24.30;;;14.03;;
4468;SDS011;2247;42.666;23.292;2024-03-02T01:52:52;26.73;;;15.27;;
4468;SDS011;2247;42.666;23.292;2024-03-02T01:55:19;23.30;;;14.13;;
4468;SDS011;2247;42.666;23.292;2024-03-02T01:57:48;24.87;;;14.30;;
4468;SDS011;2247;42.666;23.292;2024-03-02T02:00:17;21.60;;;13.80;;
4468;SDS011;2247;42.666;23.292;2024-03-02T02:02:45;26.87;;;15.63;;
4468;SDS011;2247;42.666;23.292;2024-03-02T02:05:12;21.97;;;13.40;;
4468;SDS011;2247;42.666;23.292;2024-03-02T02:07:40;24.13;;;13.83;;
4468;SDS011;2247;42.666;23.292;2024-03-02T02:10:07;21.70;;;12.43;;
4468;SDS011;2247;42.666;23.292;2024-03-02T02:12:34;26.37;;;14.03;;
4468;SDS011;2247;42.666;23.292;2024-03-02T02:15:03;26.43;;;14.20;;
4468;SDS011;2247;42.666;23.292;2024-03-02T02:17:47;23.93;;;13.83;;
4468;SDS011;2247;42.666;23.292;2024-03-02T02:20:15;28.03;;;14.83;;
4468;SDS011;2247;42.666;23.292;2024-03-02T02:22:53;21.57;;;13.50;;
4468;SDS011;2247;42.666;23.292;2024-03-02T02:25:21;23.13;;;14.27;;
4468;SDS011;2247;42.666;23.292;2024-03-02T02:27:49;21.00;;;14.07;;
4468;SDS011;2247;42.666;23.292;2024-03-02T02:30:18;25.47;;;15.20;;
4468;SDS011;2247;42.666;23.292;2024-03-02T02:32:46;24.47;;;13.70;;
4468;SDS011;2247;42.666;23.292;2024-03-02T02:35:13;23.97;;;14.00;;
4468;SDS011;2247;42.666;23.292;2024-03-02T02:37:40;27.20;;;14.17;;
4468;SDS011;2247;42.666;23.292;2024-03-02T02:40:10;21.80;;;12.90;;
4468;SDS011;2247;42.666;23.292;2024-03-02T02:42:38;23.80;;;13.53;;
4468;SDS011;2247;42.666;23.292;2024-03-02T02:45:06;25.93;;;14.80;;
4468;SDS011;2247;42.666;23.292;2024-03-02T02:47:34;22.90;;;13.50;;
4468;SDS011;2247;42.666;23.292;2024-03-02T02:50:02;23.70;;;12.93;;
4468;SDS011;2247;42.666;23.292;2024-03-02T02:52:32;22.70;;;13.70;;
4468;SDS011;2247;42.666;23.292;2024-03-02T02:55:01;22.93;;;13.37;;
4468;SDS011;2247;42.666;23.292;2024-03-02T02:57:32;26.23;;;13.60;;
4468;SDS011;2247;42.666;23.292;2024-03-02T03:00:03;26.03;;;15.27;;
4468;SDS011;2247;42.666;23.292;2024-03-02T03:02:35;24.93;;;14.13;;
4468;SDS011;2247;42.666;23.292;2024-03-02T03:05:04;23.80;;;13.93;;
4468;SDS011;2247;42.666;23.292;2024-03-02T03:07:31;29.33;;;14.60;;
4468;SDS011;2247;42.666;23.292;2024-03-02T03:09:59;25.37;;;15.07;;
4468;SDS011;2247;42.666;23.292;2024-03-02T03:12:26;26.17;;;14.40;;
4468;SDS011;2247;42.666;23.292;2024-03-02T03:14:54;26.40;;;15.20;;
4468;SDS011;2247;42.666;23.292;2024-03-02T03:17:21;25.57;;;15.47;;
4468;SDS011;2247;42.666;23.292;2024-03-02T03:19:48;23.00;;;14.50;;
4468;SDS011;2247;42.666;23.292;2024-03-02T03:22:15;28.63;;;14.77;;
4468;SDS011;2247;42.666;23.292;2024-03-02T03:24:42;31.77;;;17.63;;
4468;SDS011;2247;42.666;23.292;2024-03-02T03:27:09;37.47;;;18.63;;
4468;SDS011;2247;42.666;23.292;2024-03-02T03:29:36;32.10;;;18.60;;
4468;SDS011;2247;42.666;23.292;2024-03-02T03:32:06;36.90;;;19.60;;
4468;SDS011;2247;42.666;23.292;2024-03-02T03:34:33;34.63;;;19.73;;
4468;SDS011;2247;42.666;23.292;2024-03-02T03:37:00;35.73;;;19.00;;
4468;SDS011;2247;42.666;23.292;2024-03-02T03:39:27;31.80;;;17.73;;
4468;SDS011;2247;42.666;23.292;2024-03-02T03:41:54;37.90;;;20.20;;
4468;SDS011;2247;42.666;23.292;2024-03-02T03:44:21;34.30;;;19.77;;
4468;SDS011;2247;42.666;23.292;2024-03-02T03:46:48;36.00;;;19.33;;
4468;SDS011;2247;42.666;23.292;2024-03-02T03:49:17;37.10;;;19.23;;
4468;SDS011;2247;42.666;23.292;2024-03-02T03:51:43;35.93;;;19.83;;
4468;SDS011;2247;42.666;23.292;2024-03-02T03:54:10;38.20;;;19.60;;
4468;SDS011;2247;42.666;23.292;2024-03-02T03:56:37;38.40;;;19.47;;
4468;SDS011;2247;42.666;23.292;2024-03-02T03:59:04;33.77;;;18.13;;
4468;SDS011;2247;42.666;23.292;2024-03-02T04:01:31;32.10;;;19.60;;
4468;SDS011;2247;42.666;23.292;2024-03-02T04:03:58;34.90;;;19.50;;
4468;SDS011;2247;42.666;23.292;2024-03-02T04:06:28;32.40;;;19.03;;
4468;SDS011;2247;42.666;23.292;2024-03-02T04:08:55;33.00;;;18.90;;
4468;SDS011;2247;42.666;23.292;2024-03-02T04:11:22;36.93;;;20.20;;
4468;SDS011;2247;42.666;23.292;2024-03-02T04:13:49;33.27;;;19.30;;
4468;SDS011;2247;42.666;23.292;2024-03-02T04:16:17;33.43;;;19.70;;
4468;SDS011;2247;42.666;23.292;2024-03-02T04:18:44;37.50;;;21.50;;
4468;SDS011;2247;42.666;23.292;2024-03-02T04:21:11;33.00;;;20.20;;
4468;SDS011;2247;42.666;23.292;2024-03-02T04:23:39;35.37;;;20.90;;
4468;SDS011;2247;42.666;23.292;2024-03-02T04:26:06;34.40;;;20.00;;
4468;SDS011;2247;42.666;23.292;2024-03-02T04:28:33;39.63;;;22.00;;
4468;SDS011;2247;42.666;23.292;2024-03-02T04:31:00;33.83;;;20.13;;
4468;SDS011;2247;42.666;23.292;2024-03-02T04:33:27;35.37;;;20.80;;
4468;SDS011;2247;42.666;23.292;2024-03-02T04:35:54;36.40;;;20.07;;
4468;SDS011;2247;42.666;23.292;2024-03-02T04:38:21;36.90;;;20.87;;
4468;SDS011;2247;42.666;23.292;2024-03-02T04:40:49;39.97;;;21.13;;
4468;SDS011;2247;42.666;23.292;2024-03-02T04:43:16;38.80;;;21.27;;
4468;SDS011;2247;42.666;23.292;2024-03-02T04:45:44;39.90;;;22.00;;
4468;SDS011;2247;42.666;23.292;2024-03-02T04:48:11;37.03;;;21.17;;
4468;SDS011;2247;42.666;23.292;2024-03-02T04:50:38;37.00;;;21.80;;
4468;SDS011;2247;42.666;23.292;2024-03-02T04:53:05;36.93;;;21.30;;
4468;SDS011;2247;42.666;23.292;2024-03-02T04:55:32;34.30;;;20.50;;
4468;SDS011;2247;42.666;23.292;2024-03-02T04:58:30;39.97;;;20.67;;
4468;SDS011;2247;42.666;23.292;2024-03-02T05:00:57;38.30;;;21.07;;
4468;SDS011;2247;42.666;23.292;2024-03-02T05:03:24;38.73;;;21.90;;
4468;SDS011;2247;42.666;23.292;2024-03-02T05:05:51;34.90;;;20.33;;
4468;SDS011;2247;42.666;23.292;2024-03-02T05:08:18;45.13;;;21.40;;
4468;SDS011;2247;42.666;23.292;2024-03-02T05:10:45;38.20;;;21.00;;
4468;SDS011;2247;42.666;23.292;2024-03-02T05:13:12;41.97;;;21.70;;
4468;SDS011;2247;42.666;23.292;2024-03-02T05:15:39;37.90;;;20.77;;
4468;SDS011;2247;42.666;23.292;2024-03-02T05:18:06;35.43;;;20.53;;
4468;SDS011;2247;42.666;23.292;2024-03-02T05:20:33;37.27;;;21.00;;
4468;SDS011;2247;42.666;23.292;2024-03-02T05:23:00;41.67;;;21.50;;
4468;SDS011;2247;42.666;23.292;2024-03-02T05:25:27;37.43;;;21.23;;
4468;SDS011;2247;42.666;23.292;2024-03-02T05:27:54;40.10;;;21.90;;
4468;SDS011;2247;42.666;23.292;2024-03-02T05:30:21;39.13;;;21.43;;
4468;SDS011;2247;42.666;23.292;2024-03-02T05:32:52;36.50;;;21.57;;
4468;SDS011;2247;42.666;23.292;2024-03-02T05:35:20;42.27;;;22.43;;
4468;SDS011;2247;42.666;23.292;2024-03-02T05:37:47;39.27;;;21.90;;
4468;SDS011;2247;42.666;23.292;2024-03-02T05:40:15;39.47;;;22.10;;
4468;SDS011;2247;42.666;23.292;2024-03-02T05:42:42;38.83;;;21.80;;
4468;SDS011;2247;42.666;23.292;2024-03-02T05:45:09;37.67;;;21.23;;
4468;SDS011;2247;42.666;23.292;2024-03-02T05:47:36;41.20;;;21.80;;
4468;SDS011;2247;42.666;23.292;2024-03-02T05:50:05;41.13;;;22.73;;
4468;SDS011;2247;42.666;23.292;2024-03-02T05:52:33;46.03;;;24.93;;
4468;SDS011;2247;42.666;23.292;2024-03-02T05:55:00;38.47;;;21.87;;
4468;SDS011;2247;42.666;23.292;2024-03-02T05:57:27;46.57;;;23.47;;
4468;SDS011;2247;42.666;23.292;2024-03-02T06:00:10;36.00;;;20.80;;
4468;SDS011;2247;42.666;23.292;2024-03-02T06:02:38;37.87;;;20.87;;
4468;SDS011;2247;42.666;23.292;2024-03-02T06:05:07;36.07;;;21.50;;
4468;SDS011;2247;42.666;23.292;2024-03-02T06:07:34;36.60;;;20.20;;
4468;SDS011;2247;42.666;23.292;2024-03-02T06:10:01;34.43;;;20.13;;
4468;SDS011;2247;42.666;23.292;2024-03-02T06:12:28;41.10;;;21.30;;
4468;SDS011;2247;42.666;23.292;2024-03-02T06:14:57;38.00;;;22.03;;
4468;SDS011;2247;42.666;23.292;2024-03-02T06:17:24;36.30;;;20.40;;
4468;SDS011;2247;42.666;23.292;2024-03-02T06:19:51;36.67;;;21.33;;
4468;SDS011;2247;42.666;23.292;2024-03-02T06:22:19;37.13;;;21.73;;
4468;SDS011;2247;42.666;23.292;2024-03-02T06:24:48;38.87;;;21.20;;
4468;SDS011;2247;42.666;23.292;2024-03-02T06:27:15;36.03;;;20.43;;
4468;SDS011;2247;42.666;23.292;2024-03-02T06:29:41;37.40;;;22.50;;
4468;SDS011;2247;42.666;23.292;2024-03-02T06:32:08;37.70;;;22.10;;
4468;SDS011;2247;42.666;23.292;2024-03-02T06:34:35;38.50;;;20.87;;
4468;SDS011;2247;42.666;23.292;2024-03-02T06:37:02;38.90;;;22.10;;
4468;SDS011;2247;42.666;23.292;2024-03-02T06:39:31;35.23;;;20.83;;
4468;SDS011;2247;42.666;23.292;2024-03-02T06:41:59;38.43;;;22.77;;
4468;SDS011;2247;42.666;23.292;2024-03-02T06:44:26;35.13;;;20.70;;
4468;SDS011;2247;42.666;23.292;2024-03-02T06:46:53;39.57;;;20.60;;
4468;SDS011;2247;42.666;23.292;2024-03-02T06:49:20;36.10;;;21.70;;
4468;SDS011;2247;42.666;23.292;2024-03-02T06:51:47;45.93;;;25.60;;
4468;SDS011;2247;42.666;23.292;2024-03-02T06:54:15;31.30;;;19.07;;
4468;SDS011;2247;42.666;23.292;2024-03-02T06:56:43;29.00;;;16.83;;
4468;SDS011;2247;42.666;23.292;2024-03-02T06:59:10;33.13;;;17.97;;
4468;SDS011;2247;42.666;23.292;2024-03-02T07:01:37;29.40;;;17.10;;
4468;SDS011;2247;42.666;23.292;2024-03-02T07:04:04;34.50;;;18.87;;
4468;SDS011;2247;42.666;23.292;2024-03-02T07:06:31;32.00;;;17.77;;
4468;SDS011;2247;42.666;23.292;2024-03-02T07:08:58;26.17;;;16.07;;
4468;SDS011;2247;42.666;23.292;2024-03-02T07:11:25;33.83;;;16.77;;
4468;SDS011;2247;42.666;23.292;2024-03-02T07:13:53;30.70;;;17.00;;
4468;SDS011;2247;42.666;23.292;2024-03-02T07:16:20;29.53;;;17.23;;
4468;SDS011;2247;42.666;23.292;2024-03-02T07:18:58;29.10;;;15.87;;
4468;SDS011;2247;42.666;23.292;2024-03-02T07:21:26;28.27;;;15.67;;
4468;SDS011;2247;42.666;23.292;2024-03-02T07:23:53;25.90;;;16.27;;
4468;SDS011;2247;42.666;23.292;2024-03-02T07:26:20;30.60;;;16.97;;
4468;SDS011;2247;42.666;23.292;2024-03-02T07:28:48;31.20;;;16.33;;
4468;SDS011;2247;42.666;23.292;2024-03-02T07:31:17;34.47;;;20.43;;
4468;SDS011;2247;42.666;23.292;2024-03-02T07:33:44;33.10;;;15.70;;
4468;SDS011;2247;42.666;23.292;2024-03-02T07:36:11;28.77;;;16.67;;
4468;SDS011;2247;42.666;23.292;2024-03-02T07:38:39;28.60;;;16.60;;
4468;SDS011;2247;42.666;23.292;2024-03-02T07:41:06;32.30;;;15.30;;
4468;SDS011;2247;42.666;23.292;2024-03-02T07:43:34;31.83;;;17.23;;
4468;SDS011;2247;42.666;23.292;2024-03-02T07:46:01;31.57;;;16.30;;
4468;SDS011;2247;42.666;23.292;2024-03-02T07:48:30;27.43;;;15.90;;
4468;SDS011;2247;42.666;23.292;2024-03-02T07:50:57;30.27;;;16.33;;
4468;SDS011;2247;42.666;23.292;2024-03-02T07:53:24;31.67;;;17.93;;
4468;SDS011;2247;42.666;23.292;2024-03-02T07:55:51;30.27;;;16.23;;
4468;SDS011;2247;42.666;23.292;2024-03-02T07:58:18;28.70;;;17.33;;
4468;SDS011;2247;42.666;23.292;2024-03-02T08:00:46;31.43;;;17.00;;
4468;SDS011;2247;42.666;23.292;2024-03-02T08:03:13;31.33;;;17.67;;
4468;SDS011;2247;42.666;23.292;2024-03-02T08:05:42;38.20;;;19.47;;
4468;SDS011;2247;42.666;23.292;2024-03-02T08:08:11;33.27;;;18.60;;
4468;SDS011;2247;42.666;23.292;2024-03-02T08:10:38;35.47;;;18.90;;
4468;SDS011;2247;42.666;23.292;2024-03-02T08:13:05;36.47;;;19.67;;
4468;SDS011;2247;42.666;23.292;2024-03-02T08:15:32;40.20;;;19.17;;
4468;SDS011;2247;42.666;23.292;2024-03-02T08:17:58;36.23;;;19.50;;
4468;SDS011;2247;42.666;23.292;2024-03-02T08:20:25;41.17;;;19.83;;
4468;SDS011;2247;42.666;23.292;2024-03-02T08:22:54;33.37;;;19.10;;
4468;SDS011;2247;42.666;23.292;2024-03-02T08:25:21;34.47;;;17.93;;
4468;SDS011;2247;42.666;23.292;2024-03-02T08:27:48;37.97;;;20.20;;
4468;SDS011;2247;42.666;23.292;2024-03-02T08:30:15;36.70;;;19.40;;
4468;SDS011;2247;42.666;23.292;2024-03-02T08:32:43;33.10;;;18.30;;
4468;SDS011;2247;42.666;23.292;2024-03-02T08:35:10;36.67;;;18.37;;
4468;SDS011;2247;42.666;23.292;2024-03-02T08:37:38;32.73;;;17.87;;
4468;SDS011;2247;42.666;23.292;2024-03-02T08:40:08;33.07;;;18.57;;
4468;SDS011;2247;42.666;23.292;2024-03-02T08:42:35;34.47;;;18.80;;
4468;SDS011;2247;42.666;23.292;2024-03-02T08:45:03;37.03;;;17.33;;
4468;SDS011;2247;42.666;23.292;2024-03-02T08:47:31;36.60;;;18.43;;
4468;SDS011;2247;42.666;23.292;2024-03-02T08:49:58;31.20;;;17.23;;
4468;SDS011;2247;42.666;23.292;2024-03-02T08:52:25;35.40;;;18.60;;
4468;SDS011;2247;42.666;23.292;2024-03-02T08:54:54;35.77;;;18.03;;
4468;SDS011;2247;42.666;23.292;2024-03-02T08:57:23;33.77;;;18.47;;
4468;SDS011;2247;42.666;23.292;2024-03-02T08:59:50;31.30;;;17.33;;
4468;SDS011;2247;42.666;23.292;2024-03-02T09:02:17;32.07;;;16.63;;
4468;SDS011;2247;42.666;23.292;2024-03-02T09:04:44;32.67;;;18.27;;
4468;SDS011;2247;42.666;23.292;2024-03-02T09:07:11;31.40;;;16.80;;
4468;SDS011;2247;42.666;23.292;2024-03-02T09:09:38;30.70;;;17.63;;
4468;SDS011;2247;42.666;23.292;2024-03-02T09:12:05;31.60;;;16.67;;
4468;SDS011;2247;42.666;23.292;2024-03-02T09:14:33;32.87;;;17.90;;
4468;SDS011;2247;42.666;23.292;2024-03-02T09:17:01;30.07;;;16.90;;
4468;SDS011;2247;42.666;23.292;2024-03-02T09:19:29;28.60;;;17.00;;
4468;SDS011;2247;42.666;23.292;2024-03-02T09:21:56;27.60;;;15.43;;
4468;SDS011;2247;42.666;23.292;2024-03-02T09:24:23;28.73;;;16.93;;
4468;SDS011;2247;42.666;23.292;2024-03-02T09:26:51;29.47;;;16.90;;
4468;SDS011;2247;42.666;23.292;2024-03-02T09:29:17;26.40;;;16.00;;
4468;SDS011;2247;42.666;23.292;2024-03-02T09:31:47;29.00;;;16.10;;
4468;SDS011;2247;42.666;23.292;2024-03-02T09:34:14;28.00;;;14.97;;
4468;SDS011;2247;42.666;23.292;2024-03-02T09:36:41;29.93;;;16.40;;
4468;SDS011;2247;42.666;23.292;2024-03-02T09:39:08;29.37;;;16.17;;
4468;SDS011;2247;42.666;23.292;2024-03-02T09:41:36;30.23;;;16.93;;
4468;SDS011;2247;42.666;23.292;2024-03-02T09:44:03;32.27;;;15.93;;
4468;SDS011;2247;42.666;23.292;2024-03-02T09:46:31;27.23;;;16.43;;
4468;SDS011;2247;42.666;23.292;2024-03-02T09:48:59;30.57;;;16.57;;
4468;SDS011;2247;42.666;23.292;2024-03-02T09:51:27;31.90;;;16.40;;
4468;SDS011;2247;42.666;23.292;2024-03-02T09:53:54;27.50;;;15.67;;
4468;SDS011;2247;42.666;23.292;2024-03-02T09:56:21;28.10;;;16.17;;
4468;SDS011;2247;42.666;23.292;2024-03-02T09:58:48;33.03;;;15.80;;
4468;SDS011;2247;42.666;23.292;2024-03-02T10:01:16;27.10;;;16.17;;
4468;SDS011;2247;42.666;23.292;2024-03-02T10:03:44;31.90;;;14.83;;
4468;SDS011;2247;42.666;23.292;2024-03-02T10:06:23;27.87;;;15.20;;
4468;SDS011;2247;42.666;23.292;2024-03-02T10:08:50;28.07;;;15.40;;
4468;SDS011;2247;42.666;23.292;2024-03-02T10:11:27;30.67;;;17.63;;
4468;SDS011;2247;42.666;23.292;2024-03-02T10:14:05;30.13;;;16.53;;
4468;SDS011;2247;42.666;23.292;2024-03-02T10:16:37;31.50;;;17.27;;
4468;SDS011;2247;42.666;23.292;2024-03-02T10:19:17;33.87;;;17.17;;
4468;SDS011;2247;42.666;23.292;2024-03-02T10:21:47;31.60;;;17.53;;
4468;SDS011;2247;42.666;23.292;2024-03-02T10:24:15;32.63;;;17.90;;
4468;SDS011;2247;42.666;23.292;2024-03-02T10:26:42;32.50;;;18.23;;
4468;SDS011;2247;42.666;23.292;2024-03-02T10:29:09;27.53;;;16.07;;
4468;SDS011;2247;42.666;23.292;2024-03-02T10:31:37;31.90;;;17.60;;
4468;SDS011;2247;42.666;23.292;2024-03-02T10:34:04;28.50;;;16.87;;
4468;SDS011;2247;42.666;23.292;2024-03-02T10:36:32;30.83;;;17.33;;
4468;SDS011;2247;42.666;23.292;2024-03-02T10:39:02;33.40;;;19.23;;
4468;SDS011;2247;42.666;23.292;2024-03-02T10:41:32;31.93;;;17.90;;
4468;SDS011;2247;42.666;23.292;2024-03-02T10:44:01;29.43;;;17.27;;
4468;SDS011;2247;42.666;23.292;2024-03-02T10:46:29;30.43;;;17.50;;
4468;SDS011;2247;42.666;23.292;2024-03-02T10:48:57;34.00;;;19.10;;
4468;SDS011;2247;42.666;23.292;2024-03-02T10:51:25;35.27;;;19.10;;
4468;SDS011;2247;42.666;23.292;2024-03-02T10:53:52;34.33;;;17.97;;
4468;SDS011;2247;42.666;23.292;2024-03-02T10:56:28;30.60;;;17.27;;
4468;SDS011;2247;42.666;23.292;2024-03-02T10:59:01;31.57;;;17.50;;
4468;SDS011;2247;42.666;23.292;2024-03-02T11:01:31;34.07;;;18.90;;
4468;SDS011;2247;42.666;23.292;2024-03-02T11:03:59;34.63;;;19.43;;
4468;SDS011;2247;42.666;23.292;2024-03-02T11:06:29;35.40;;;19.03;;
4468;SDS011;2247;42.666;23.292;2024-03-02T11:08:59;29.13;;;17.00;;
4468;SDS011;2247;42.666;23.292;2024-03-02T11:11:36;32.27;;;16.63;;
4468;SDS011;2247;42.666;23.292;2024-03-02T11:14:06;31.90;;;17.90;;
4468;SDS011;2247;42.666;23.292;2024-03-02T11:16:35;30.70;;;17.70;;
4468;SDS011;2247;42.666;23.292;2024-03-02T11:19:04;30.10;;;17.20;;
4468;SDS011;2247;42.666;23.292;2024-03-02T11:21:33;28.90;;;16.90;;
4468;SDS011;2247;42.666;23.292;2024-03-02T11:24:00;34.97;;;17.50;;
4468;SDS011;2247;42.666;23.292;2024-03-02T11:26:49;36.33;;;17.50;;
4468;SDS011;2247;42.666;23.292;2024-03-02T11:29:28;29.97;;;17.23;;
4468;SDS011;2247;42.666;23.292;2024-03-02T11:32:13;31.50;;;17.00;;
4468;SDS011;2247;42.666;23.292;2024-03-02T11:34:41;29.77;;;17.27;;
4468;SDS011;2247;42.666;23.292;2024-03-02T11:37:11;29.67;;;17.00;;
4468;SDS011;2247;42.666;23.292;2024-03-02T11:39:39;28.03;;;15.97;;
4468;SDS011;2247;42.666;23.292;2024-03-02T11:42:08;30.37;;;17.50;;
4468;SDS011;2247;42.666;23.292;2024-03-02T11:44:36;36.03;;;18.17;;
4468;SDS011;2247;42.666;23.292;2024-03-02T11:47:05;31.17;;;17.93;;
4468;SDS011;2247;42.666;23.292;2024-03-02T11:49:36;28.87;;;16.10;;
4468;SDS011;2247;42.666;23.292;2024-03-02T11:52:05;29.77;;;17.33;;
4468;SDS011;2247;42.666;23.292;2024-03-02T11:54:34;30.23;;;16.70;;
4468;SDS011;2247;42.666;23.292;2024-03-02T11:57:04;33.70;;;18.10;;
4468;SDS011;2247;42.666;23.292;2024-03-02T11:59:33;27.33;;;16.77;;
4468;SDS011;2247;42.666;23.292;2024-03-02T12:02:00;28.47;;;16.03;;
4468;SDS011;2247;42.666;23.292;2024-03-02T12:04:28;28.63;;;16.83;;
4468;SDS011;2247;42.666;23.292;2024-03-02T12:06:56;30.07;;;17.10;;
4468;SDS011;2247;42.666;23.292;2024-03-02T12:09:25;35.17;;;18.43;;
4468;SDS011;2247;42.666;23.292;2024-03-02T12:12:05;49.07;;;17.13;;
4468;SDS011;2247;42.666;23.292;2024-03-02T12:14:34;30.90;;;17.70;;
4468;SDS011;2247;42.666;23.292;2024-03-02T12:17:03;29.30;;;16.20;;
4468;SDS011;2247;42.666;23.292;2024-03-02T12:19:31;36.77;;;16.70;;
4468;SDS011;2247;42.666;23.292;2024-03-02T12:21:58;33.03;;;18.10;;
4468;SDS011;2247;42.666;23.292;2024-03-02T12:24:26;28.03;;;16.63;;
4468;SDS011;2247;42.666;23.292;2024-03-02T12:26:55;28.80;;;16.83;;
4468;SDS011;2247;42.666;23.292;2024-03-02T12:29:22;32.87;;;18.30;;
4468;SDS011;2247;42.666;23.292;2024-03-02T12:31:51;29.10;;;17.03;;
4468;SDS011;2247;42.666;23.292;2024-03-02T12:34:19;31.27;;;18.60;;
4468;SDS011;2247;42.666;23.292;2024-03-02T12:36:48;32.40;;;18.13;;
4468;SDS011;2247;42.666;23.292;2024-03-02T12:39:18;29.37;;;17.37;;
4468;SDS011;2247;42.666;23.292;2024-03-02T12:41:45;30.70;;;18.30;;
4468;SDS011;2247;42.666;23.292;2024-03-02T12:44:15;29.67;;;17.77;;
4468;SDS011;2247;42.666;23.292;2024-03-02T12:46:42;29.80;;;17.43;;
4468;SDS011;2247;42.666;23.292;2024-03-02T12:49:11;29.70;;;17.83;;
4468;SDS011;2247;42.666;23.292;2024-03-02T12:51:39;31.07;;;18.97;;
4468;SDS011;2247;42.666;23.292;2024-03-02T12:54:07;32.30;;;18.30;;
4468;SDS011;2247;42.666;23.292;2024-03-02T12:56:35;31.03;;;18.90;;
4468;SDS011;2247;42.666;23.292;2024-03-02T12:59:02;32.00;;;18.20;;
4468;SDS011;2247;42.666;23.292;2024-03-02T13:01:30;28.40;;;17.27;;
4468;SDS011;2247;42.666;23.292;2024-03-02T13:03:57;33.53;;;17.67;;
4468;SDS011;2247;42.666;23.292;2024-03-02T13:06:26;30.37;;;17.70;;
4468;SDS011;2247;42.666;23.292;2024-03-02T13:08:54;34.93;;;17.93;;
4468;SDS011;2247;42.666;23.292;2024-03-02T13:11:21;32.53;;;17.70;;
4468;SDS011;2247;42.666;23.292;2024-03-02T13:13:49;29.37;;;17.20;;
4468;SDS011;2247;42.666;23.292;2024-03-02T13:16:17;28.70;;;17.83;;
4468;SDS011;2247;42.666;23.292;2024-03-02T13:18:45;27.90;;;16.30;;
4468;SDS011;2247;42.666;23.292;2024-03-02T13:21:12;28.73;;;17.67;;
4468;SDS011;2247;42.666;23.292;2024-03-02T13:23:41;28.87;;;17.30;;
4468;SDS011;2247;42.666;23.292;2024-03-02T13:26:07;28.63;;;17.67;;
4468;SDS011;2247;42.666;23.292;2024-03-02T13:28:38;28.80;;;16.93;;
4468;SDS011;2247;42.666;23.292;2024-03-02T13:31:05;28.27;;;17.80;;
4468;SDS011;2247;42.666;23.292;2024-03-02T13:33:32;30.30;;;18.60;;
4468;SDS011;2247;42.666;23.292;2024-03-02T13:36:00;32.67;;;17.27;;
4468;SDS011;2247;42.666;23.292;2024-03-02T13:38:28;27.97;;;15.90;;
4468;SDS011;2247;42.666;23.292;2024-03-02T13:40:56;27.50;;;17.10;;
4468;SDS011;2247;42.666;23.292;2024-03-02T13:43:35;27.63;;;16.77;;
4468;SDS011;2247;42.666;23.292;2024-03-02T13:46:03;28.33;;;16.70;;
4468;SDS011;2247;42.666;23.292;2024-03-02T13:48:31;30.03;;;18.10;;
4468;SDS011;2247;42.666;23.292;2024-03-02T13:50:58;30.00;;;18.50;;
4468;SDS011;2247;42.666;23.292;2024-03-02T13:53:25;29.30;;;16.50;;
4468;SDS011;2247;42.666;23.292;2024-03-02T13:55:53;30.40;;;17.40;;
4468;SDS011;2247;42.666;23.292;2024-03-02T13:58:20;30.03;;;17.33;;
4468;SDS011;2247;42.666;23.292;2024-03-02T14:00:47;26.87;;;16.83;;
4468;SDS011;2247;42.666;23.292;2024-03-02T14:03:14;27.87;;;16.90;;
4468;SDS011;2247;42.666;23.292;2024-03-02T14:05:42;29.10;;;17.47;;
4468;SDS011;2247;42.666;23.292;2024-03-02T14:08:11;36.03;;;19.00;;
4468;SDS011;2247;42.666;23.292;2024-03-02T14:10:38;29.60;;;16.73;;
4468;SDS011;2247;42.666;23.292;2024-03-02T14:13:05;26.47;;;17.57;;
4468;SDS011;2247;42.666;23.292;2024-03-02T14:15:34;33.60;;;20.60;;
4468;SDS011;2247;42.666;23.292;2024-03-02T14:18:05;30.10;;;18.37;;
4468;SDS011;2247;42.666;23.292;2024-03-02T14:20:32;27.87;;;17.57;;
4468;SDS011;2247;42.666;23.292;2024-03-02T14:22:59;30.80;;;17.70;;
4468;SDS011;2247;42.666;23.292;2024-03-02T14:25:28;31.53;;;17.90;;
4468;SDS011;2247;42.666;23.292;2024-03-02T14:27:56;30.13;;;17.73;;
4468;SDS011;2247;42.666;23.292;2024-03-02T14:30:24;27.67;;;17.20;;
4468;SDS011;2247;42.666;23.292;2024-03-02T14:32:52;28.23;;;17.33;;
4468;SDS011;2247;42.666;23.292;2024-03-02T14:35:19;32.43;;;19.60;;
4468;SDS011;2247;42.666;23.292;2024-03-02T14:37:47;32.30;;;19.83;;
4468;SDS011;2247;42.666;23.292;2024-03-02T14:40:16;28.70;;;17.13;;
4468;SDS011;2247;42.666;23.292;2024-03-02T14:42:43;29.70;;;17.57;;